Time;durP1;ratioP1;P1;durP2;ratioP2;P2;SDS_P1;SDS_P2;PMS_P1;PMS_P2;Temp;Humidity;BMP_temperature;BMP_pressure;BME280_temperature;BME280_humidity;BME280_pressure;Samples;Min_cycle;Max_cycle;Signal;HPM_P1;HPM_P2
2022/12/08 00:01:06;;;;;;;10.33;6.90;;;;;;;-0.29;94.30;95084.63;4966438;28;20192;-79
2022/12/08 00:03:31;;;;;;;10.70;6.47;;;;;;;-0.33;94.17;95077.25;4954224;28;20667;-80
2022/12/08 00:11:25;;;;;;;10.77;6.07;;;;;;;-0.46;94.67;95066.97;4962004;28;20196;-79
2022/12/08 00:13:50;;;;;;;9.27;6.13;;;;;;;-0.46;94.87;95066.13;4943876;29;20686;-79
2022/12/08 00:16:16;;;;;;;10.07;6.20;;;;;;;-0.42;94.00;95059.97;4938194;29;20193;-80
2022/12/08 00:18:41;;;;;;;9.67;6.13;;;;;;;-0.43;94.48;95060.88;4954181;28;20705;-79
2022/12/08 00:21:06;;;;;;;11.03;6.67;;;;;;;-0.44;94.52;95062.59;4955115;29;20271;-79
2022/12/08 00:23:31;;;;;;;8.57;6.20;;;;;;;-0.52;94.78;95054.59;4951617;28;20193;-79
2022/12/08 00:26:01;;;;;;;9.67;6.23;;;;;;;-0.47;94.58;95064.50;4951758;28;20209;-79
2022/12/08 00:28:26;;;;;;;10.50;5.83;;;;;;;-0.50;94.43;95050.22;4949388;29;20207;-80
2022/12/08 00:30:51;;;;;;;10.77;6.67;;;;;;;-0.51;94.12;95048.59;4949306;29;20201;-80
2022/12/08 00:33:17;;;;;;;8.93;6.53;;;;;;;-0.52;94.07;95046.13;4953991;28;20217;-80
2022/12/08 00:35:42;;;;;;;9.33;6.33;;;;;;;-0.52;94.08;95057.16;4943105;29;20243;-79
2022/12/08 00:38:07;;;;;;;9.17;5.77;;;;;;;-0.55;93.84;95049.66;4930200;29;20250;-79
2022/12/08 00:40:33;;;;;;;10.10;6.53;;;;;;;-0.54;93.63;95047.94;4943404;29;20193;-80
2022/12/08 00:42:58;;;;;;;8.80;6.10;;;;;;;-0.61;93.87;95045.78;4938677;29;20264;-80
2022/12/08 00:45:23;;;;;;;9.77;6.00;;;;;;;-0.65;93.88;95051.13;4952133;28;20213;-80
2022/12/08 00:47:48;;;;;;;7.67;5.83;;;;;;;-0.63;94.30;95052.66;4950848;28;20192;-79
2022/12/08 00:50:14;;;;;;;11.47;6.30;;;;;;;-0.66;94.07;95059.69;4937328;29;20205;-80
2022/12/08 00:52:39;;;;;;;9.63;6.37;;;;;;;-0.66;94.39;95049.50;4952035;29;20793;-80
2022/12/08 00:55:05;;;;;;;10.13;6.90;;;;;;;-0.68;94.49;95057.25;4957888;28;20260;-80
2022/12/08 00:57:31;;;;;;;10.83;6.43;;;;;;;-0.70;94.01;95053.16;4936127;29;20189;-80
2022/12/08 00:59:56;;;;;;;12.37;6.63;;;;;;;-0.73;94.44;95043.13;4937253;29;20194;-80
2022/12/08 01:02:22;;;;;;;10.90;6.33;;;;;;;-0.70;94.56;95040.41;4949742;29;20188;-80
2022/12/08 01:04:47;;;;;;;12.80;7.47;;;;;;;-0.73;94.15;95043.13;4926290;29;20233;-80
2022/12/08 01:07:13;;;;;;;11.93;7.07;;;;;;;-0.77;94.87;95044.22;4937781;29;20612;-80
2022/12/08 01:09:38;;;;;;;9.93;6.97;;;;;;;-0.74;94.82;95033.84;4951253;29;20190;-81
2022/12/08 01:12:04;;;;;;;10.17;6.67;;;;;;;-0.77;94.90;95037.41;4949819;28;20713;-80
2022/12/08 01:14:30;;;;;;;11.60;6.83;;;;;;;-0.77;94.41;95046.78;4958094;28;20214;-80
2022/12/08 01:16:55;;;;;;;11.13;7.23;;;;;;;-0.91;95.49;95039.94;4950418;28;20201;-80
2022/12/08 01:19:20;;;;;;;11.40;7.40;;;;;;;-0.98;96.31;95033.56;4948685;29;20213;-80
2022/12/08 01:21:45;;;;;;;10.23;7.23;;;;;;;-0.97;96.40;95041.13;4933419;29;20229;-80
2022/12/08 01:24:13;;;;;;;10.10;6.63;;;;;;;-1.00;96.59;95043.84;4968482;28;20251;-81
2022/12/08 01:26:38;;;;;;;10.37;6.80;;;;;;;-1.00;96.83;95043.84;4930421;29;20193;-80
2022/12/08 01:29:03;;;;;;;12.53;7.23;;;;;;;-1.01;96.50;95044.75;4945277;29;20200;-82
2022/12/08 01:31:28;;;;;;;10.73;6.97;;;;;;;-0.99;96.44;95040.38;4965142;29;20177;-81
2022/12/08 01:33:54;;;;;;;10.10;6.70;;;;;;;-0.99;96.67;95042.13;4948505;29;20225;-81
2022/12/08 01:36:25;;;;;;;10.97;6.90;;;;;;;-1.05;96.46;95037.41;4963847;28;20173;-82
2022/12/08 01:38:51;;;;;;;11.03;7.03;;;;;;;-1.08;96.29;95040.09;4951878;29;20191;-82
2022/12/08 01:41:19;;;;;;;10.33;7.07;;;;;;;-1.10;96.14;95040.19;4951757;29;20233;-81
2022/12/08 01:43:53;;;;;;;9.83;6.87;;;;;;;-1.13;95.97;95039.56;4963297;28;20212;-81
2022/12/08 01:46:18;;;;;;;8.90;6.20;;;;;;;-1.13;96.05;95034.47;4945895;29;20240;-80
2022/12/08 01:48:44;;;;;;;10.03;6.03;;;;;;;-1.21;95.91;95029.81;4942569;29;20194;-80
2022/12/08 01:51:09;;;;;;;10.13;6.13;;;;;;;-1.23;96.30;95032.47;4956647;29;20228;-80
2022/12/08 01:53:35;;;;;;;9.43;6.47;;;;;;;-1.24;96.06;95027.44;4952471;29;20223;-82
2022/12/08 01:56:12;;;;;;;10.63;6.67;;;;;;;-1.25;96.84;95026.63;4960293;29;20260;-82
2022/12/08 01:58:41;;;;;;;8.80;6.03;;;;;;;-1.20;96.57;95022.09;4951473;29;20662;-81
2022/12/08 02:01:06;;;;;;;9.77;5.87;;;;;;;-1.18;96.27;95022.00;4941137;29;20274;-81
2022/12/08 02:03:40;;;;;;;10.70;7.17;;;;;;;-1.21;95.85;95017.09;4945423;29;20195;-82
2022/12/08 02:06:05;;;;;;;12.57;6.87;;;;;;;-1.24;95.73;95014.69;4935348;29;20188;-82
2022/12/08 02:08:31;;;;;;;9.23;6.13;;;;;;;-1.30;95.23;95007.44;4962299;29;20185;-81
2022/12/08 02:10:56;;;;;;;8.87;6.10;;;;;;;-1.34;95.29;95006.78;4962141;29;20660;-82
2022/12/08 02:13:22;;;;;;;8.70;6.00;;;;;;;-1.33;95.49;95002.50;4935709;29;20205;-82
2022/12/08 02:16:05;;;;;;;7.90;6.37;;;;;;;-1.30;95.40;94997.25;4955553;29;20240;-82
2022/12/08 02:19:06;;;;;;;9.60;5.83;;;;;;;-1.33;94.95;94995.66;4939327;29;20219;-81
2022/12/08 02:22:04;;;;;;;9.67;6.40;;;;;;;-1.35;94.75;95000.03;4922089;29;20270;-81
2022/12/08 02:24:37;;;;;;;10.63;6.50;;;;;;;-1.33;95.02;94992.31;4939590;28;20327;-81
2022/12/08 02:27:12;;;;;;;11.23;6.47;;;;;;;-1.36;95.12;94985.66;4950208;29;20287;-82
2022/12/08 02:29:52;;;;;;;10.80;6.87;;;;;;;-1.33;95.31;94992.31;4946284;29;20264;-82
2022/12/08 02:32:56;;;;;;;11.80;7.27;;;;;;;-1.31;95.49;94993.06;4955736;29;20201;-83
2022/12/08 02:35:55;;;;;;;13.17;7.73;;;;;;;-1.34;96.45;94990.66;4936567;29;20603;-81
2022/12/08 02:38:43;;;;;;;9.63;6.40;;;;;;;-1.32;96.86;94983.78;4952870;29;20217;-82
2022/12/08 02:41:48;;;;;;;12.57;7.57;;;;;;;-1.21;96.01;94986.50;4937750;29;20189;-81
2022/12/08 02:44:30;;;;;;;12.80;7.37;;;;;;;-1.22;96.32;94990.78;4936261;29;20216;-81
2022/12/08 02:47:10;;;;;;;12.47;7.03;;;;;;;-1.20;95.92;94990.69;4959262;29;20405;-82
2022/12/08 02:49:35;;;;;;;10.47;7.20;;;;;;;-1.27;95.41;94984.31;4954531;29;20212;-82
2022/12/08 02:52:23;;;;;;;10.17;6.80;;;;;;;-1.27;95.63;94981.78;4956608;28;20675;-82
2022/12/08 02:54:52;;;;;;;14.70;7.00;;;;;;;-1.31;95.94;94977.78;4964810;28;20209;-82
2022/12/08 02:57:37;;;;;;;12.80;7.43;;;;;;;-1.25;95.64;94977.41;4959047;28;20676;-81
2022/12/08 03:00:12;;;;;;;13.93;7.37;;;;;;;-1.28;95.41;94977.59;4953464;29;20841;-81
2022/12/08 03:02:44;;;;;;;11.60;6.73;;;;;;;-1.31;95.27;94980.31;4955851;29;20172;-82
2022/12/08 03:05:23;;;;;;;10.73;6.77;;;;;;;-1.35;95.32;94978.84;4956637;28;20246;-81
2022/12/08 03:08:00;;;;;;;10.67;6.50;;;;;;;-1.44;94.90;94965.75;4959700;29;20188;-81
2022/12/08 03:10:31;;;;;;;9.73;6.83;;;;;;;-1.44;94.59;94965.75;4949882;29;20184;-81
2022/12/08 03:13:01;;;;;;;10.60;6.97;;;;;;;-1.47;95.49;94954.94;4958685;29;20209;-81
2022/12/08 03:15:28;;;;;;;9.93;6.77;;;;;;;-1.47;95.03;94950.66;4940205;29;20275;-81
2022/12/08 03:17:56;;;;;;;9.53;6.30;;;;;;;-1.48;94.72;94948.19;4953543;29;20200;-81
2022/12/08 03:20:24;;;;;;;12.67;7.20;;;;;;;-1.49;94.74;94952.47;4942698;29;20243;-80
2022/12/08 03:22:51;;;;;;;10.40;7.00;;;;;;;-1.52;94.79;94945.00;4956166;29;20676;-80
2022/12/08 03:25:20;;;;;;;10.87;6.93;;;;;;;-1.51;94.87;94948.34;4958030;28;20232;-80
2022/12/08 03:27:45;;;;;;;11.17;6.90;;;;;;;-1.56;95.11;94951.19;4955046;29;20256;-80
2022/12/08 03:30:11;;;;;;;9.83;7.20;;;;;;;-1.50;94.72;94950.03;4947339;29;20249;-80
2022/12/08 03:32:51;;;;;;;10.30;7.33;;;;;;;-1.57;95.06;94930.91;4944802;29;20303;-80
2022/12/08 03:35:22;;;;;;;11.37;6.93;;;;;;;-1.60;95.02;94936.16;4951493;29;20242;-80
2022/12/08 03:37:47;;;;;;;11.33;7.10;;;;;;;-1.58;94.81;94931.81;4955690;29;20185;-80
2022/12/08 03:40:15;;;;;;;11.37;6.40;;;;;;;-1.56;94.77;94930.00;4955583;29;20189;-80
2022/12/08 03:42:40;;;;;;;10.83;6.97;;;;;;;-1.61;94.33;94937.88;4957824;29;20181;-80
2022/12/08 03:45:06;;;;;;;13.03;7.53;;;;;;;-1.64;94.86;94919.44;4933372;29;20763;-80
2022/12/08 03:47:31;;;;;;;12.20;7.20;;;;;;;-1.68;95.05;94917.97;4950427;29;20196;-80
2022/12/08 03:49:56;;;;;;;11.47;7.70;;;;;;;-1.66;95.29;94918.72;4942705;28;20280;-80
2022/12/08 03:52:22;;;;;;;10.67;7.30;;;;;;;-1.65;94.83;94921.16;4956702;28;21005;-80
2022/12/08 03:54:47;;;;;;;10.47;6.77;;;;;;;-1.66;94.42;94919.53;4952433;28;20212;-80
2022/12/08 03:57:12;;;;;;;14.10;6.87;;;;;;;-1.59;94.83;94925.91;4947381;29;20219;-80
2022/12/08 03:59:38;;;;;;;10.50;6.83;;;;;;;-1.52;94.64;94916.16;4956166;29;20205;-79
2022/12/08 04:02:03;;;;;;;10.73;6.67;;;;;;;-1.50;95.02;94925.38;4955827;28;20212;-80
2022/12/08 04:04:28;;;;;;;10.97;7.43;;;;;;;-1.54;94.75;94915.44;4952592;29;20213;-80
2022/12/08 04:06:54;;;;;;;11.10;7.00;;;;;;;-1.62;95.66;94908.25;4955687;28;20217;-79
2022/12/08 04:09:19;;;;;;;11.87;7.23;;;;;;;-1.53;94.92;94900.06;4956034;28;20185;-79
2022/12/08 04:11:44;;;;;;;12.47;7.73;;;;;;;-1.59;94.76;94903.00;4933023;29;20205;-80
2022/12/08 04:14:10;;;;;;;10.60;6.83;;;;;;;-1.55;96.11;94907.00;4936652;29;20270;-80
2022/12/08 04:16:35;;;;;;;13.63;6.80;;;;;;;-1.40;95.19;94907.00;4943429;29;20193;-80
2022/12/08 04:19:00;;;;;;;11.60;7.50;;;;;;;-1.43;94.88;94901.16;4947545;29;20193;-79
2022/12/08 04:21:25;;;;;;;9.90;6.80;;;;;;;-1.28;94.51;94904.53;4948213;29;20277;-79
2022/12/08 04:23:51;;;;;;;10.40;6.83;;;;;;;-1.25;94.45;94900.97;4941064;29;20694;-79
2022/12/08 04:26:16;;;;;;;10.17;7.13;;;;;;;-1.26;94.15;94900.16;4952535;28;20649;-79
2022/12/08 04:28:42;;;;;;;10.53;6.80;;;;;;;-1.26;94.51;94899.34;4955036;29;20234;-81
2022/12/08 04:31:07;;;;;;;10.13;6.67;;;;;;;-1.26;94.57;94899.34;4955335;29;20239;-79
2022/12/08 04:33:34;;;;;;;10.20;6.40;;;;;;;-1.24;95.09;94900.06;4941442;29;20260;-78
2022/12/08 04:35:59;;;;;;;9.00;6.33;;;;;;;-1.28;94.98;94893.53;4933572;29;20261;-80
2022/12/08 04:38:24;;;;;;;11.40;7.60;;;;;;;-1.26;94.93;94891.69;4933309;29;20224;-80
2022/12/08 04:40:50;;;;;;;10.30;6.60;;;;;;;-1.10;95.35;94892.41;4955134;29;20193;-80
2022/12/08 04:43:15;;;;;;;11.97;6.40;;;;;;;-1.03;93.99;94891.13;4954209;28;20185;-80
2022/12/08 04:45:41;;;;;;;10.33;5.97;;;;;;;-0.93;93.72;94883.72;4931298;29;20221;-79
2022/12/08 04:48:07;;;;;;;10.27;6.23;;;;;;;-0.92;93.17;94882.81;4936683;29;20201;-80
2022/12/08 04:50:33;;;;;;;10.00;6.23;;;;;;;-0.97;93.08;94887.38;4938079;29;20224;-79
2022/12/08 04:52:58;;;;;;;8.33;6.17;;;;;;;-0.90;93.23;94879.25;4956882;29;20208;-80
2022/12/08 04:55:23;;;;;;;9.20;6.03;;;;;;;-0.91;93.02;94875.06;4948971;29;20661;-79
2022/12/08 04:57:49;;;;;;;11.93;7.13;;;;;;;-0.84;92.94;94888.25;4929159;29;20197;-81
2022/12/08 05:00:15;;;;;;;10.30;6.80;;;;;;;-0.79;92.01;94880.34;4951548;28;20193;-79
2022/12/08 05:02:40;;;;;;;8.07;5.80;;;;;;;-0.87;92.19;94884.19;4954508;29;20209;-81
2022/12/08 05:05:06;;;;;;;8.87;5.47;;;;;;;-0.82;91.70;94873.69;4954017;28;20214;-79
2022/12/08 05:07:31;;;;;;;8.47;6.23;;;;;;;-0.88;92.10;94872.34;4946047;28;20185;-79
2022/12/08 05:09:56;;;;;;;10.27;5.63;;;;;;;-1.01;91.74;94875.75;4961072;28;20200;-79
2022/12/08 05:12:22;;;;;;;10.73;7.83;;;;;;;-1.03;92.22;94872.47;4944125;29;20224;-79
2022/12/08 05:14:47;;;;;;;11.63;8.03;;;;;;;-1.05;92.92;94874.31;4938067;29;20267;-80
2022/12/08 05:17:16;;;;;;;9.37;6.93;;;;;;;-1.06;92.79;94872.66;4951059;29;20588;-79
2022/12/08 05:19:42;;;;;;;9.57;6.00;;;;;;;-1.04;92.09;94871.66;4952368;28;20178;-79
2022/12/08 05:22:07;;;;;;;10.77;5.70;;;;;;;-1.09;92.89;94872.84;4964362;28;20264;-80
2022/12/08 05:24:32;;;;;;;8.73;5.67;;;;;;;-1.03;92.23;94870.75;4957168;28;20228;-79
2022/12/08 05:26:57;;;;;;;9.10;5.73;;;;;;;-1.01;91.62;94875.75;4944738;29;20219;-79
2022/12/08 05:29:23;;;;;;;9.87;6.33;;;;;;;-1.03;91.48;94875.84;4964432;28;20253;-79
2022/12/08 05:31:48;;;;;;;9.67;5.60;;;;;;;-1.07;91.35;94871.00;4956231;29;20216;-79
2022/12/08 05:34:13;;;;;;;9.33;6.07;;;;;;;-1.20;91.89;94874.31;4954458;28;20263;-79
2022/12/08 05:36:39;;;;;;;9.30;5.43;;;;;;;-1.22;93.14;94876.16;4944537;29;20262;-79
2022/12/08 05:39:04;;;;;;;11.60;6.40;;;;;;;-1.10;91.84;94877.13;4953945;29;20190;-79
2022/12/08 05:41:29;;;;;;;8.93;5.70;;;;;;;-1.09;91.60;94881.31;4946794;29;20707;-79
2022/12/08 05:43:55;;;;;;;8.70;5.07;;;;;;;-1.32;93.38;94879.34;4962009;28;20233;-80
2022/12/08 05:46:20;;;;;;;10.43;6.77;;;;;;;-1.38;93.49;94882.25;4929428;29;20188;-78
2022/12/08 05:48:46;;;;;;;9.00;5.90;;;;;;;-1.41;93.91;94873.06;4942175;29;20229;-79
2022/12/08 05:51:22;;;;;;;7.70;5.60;;;;;;;-1.50;92.99;94871.09;4947305;28;20192;-79
2022/12/08 05:53:49;;;;;;;10.83;5.80;;;;;;;-1.55;93.65;94867.97;4947019;28;20220;-80
2022/12/08 05:56:14;;;;;;;8.33;6.00;;;;;;;-1.67;94.69;94866.16;4960816;29;20200;-80
2022/12/08 05:58:40;;;;;;;8.23;6.07;;;;;;;-1.59;94.35;94862.25;4963258;29;20248;-80
2022/12/08 06:01:05;;;;;;;10.27;6.63;;;;;;;-1.60;93.74;94862.31;4940093;29;20188;-79
2022/12/08 06:03:31;;;;;;;9.50;7.00;;;;;;;-1.59;94.37;94859.72;4939810;29;20200;-79
2022/12/08 06:05:56;;;;;;;10.57;6.57;;;;;;;-1.61;94.47;94858.97;4962001;29;20581;-79
2022/12/08 06:08:21;;;;;;;10.93;7.30;;;;;;;-1.59;93.71;94862.25;4963259;29;20813;-80
2022/12/08 06:10:47;;;;;;;9.20;5.87;;;;;;;-1.63;93.61;94862.53;4952652;29;20193;-80
2022/12/08 06:13:13;;;;;;;9.10;6.53;;;;;;;-1.65;93.79;94862.63;4940538;29;20256;-80
2022/12/08 06:15:39;;;;;;;10.57;6.50;;;;;;;-1.70;93.92;94862.06;4936851;29;20330;-79
2022/12/08 06:18:05;;;;;;;9.90;5.77;;;;;;;-1.74;94.01;94865.72;4939958;29;20206;-80
2022/12/08 06:20:30;;;;;;;9.27;6.20;;;;;;;-1.79;93.97;94865.16;4939384;29;20639;-79
2022/12/08 06:22:56;;;;;;;8.63;6.17;;;;;;;-1.78;94.19;94866.78;4931570;29;20213;-80
2022/12/08 06:25:22;;;;;;;9.63;5.93;;;;;;;-1.89;94.47;94867.41;4957770;28;20291;-80
2022/12/08 06:27:47;;;;;;;7.60;5.40;;;;;;;-1.83;95.13;94866.25;4938432;29;20189;-80
2022/12/08 06:30:13;;;;;;;11.30;6.23;;;;;;;-1.92;94.00;94861.69;4956037;28;20217;-79
2022/12/08 06:32:38;;;;;;;9.93;6.47;;;;;;;-2.09;95.52;94866.03;4950240;29;20204;-79
2022/12/08 06:35:04;;;;;;;11.17;7.00;;;;;;;-2.11;96.04;94874.66;4962862;28;20219;-80
2022/12/08 06:37:29;;;;;;;9.87;6.43;;;;;;;-2.09;95.92;94870.28;4961680;29;20201;-80
2022/12/08 06:39:55;;;;;;;6.87;5.50;;;;;;;-2.10;96.59;94866.94;4966549;29;20189;-79
2022/12/08 06:45:05;;;;;;;6.63;5.37;;;;;;;-2.01;96.23;94868.94;4954547;28;20219;-80
2022/12/08 06:47:30;;;;;;;11.53;6.53;;;;;;;-2.02;96.38;94866.50;4967326;28;20257;-79
2022/12/08 06:49:56;;;;;;;8.77;6.60;;;;;;;-2.02;96.73;94871.59;4947332;29;20192;-79
2022/12/08 06:52:22;;;;;;;7.97;5.90;;;;;;;-1.96;96.37;94866.13;4957448;29;20688;-78
2022/12/08 06:54:47;;;;;;;9.23;5.97;;;;;;;-1.91;96.18;94866.69;4946951;28;20225;-79
2022/12/08 06:57:12;;;;;;;8.40;5.97;;;;;;;-1.87;95.46;94867.31;4943656;29;20247;-80
2022/12/08 06:59:38;;;;;;;9.13;6.53;;;;;;;-1.88;95.47;94865.69;4953642;28;20225;-80
2022/12/08 07:02:03;;;;;;;7.77;5.67;;;;;;;-1.91;95.95;94865.88;4948907;29;20198;-79
2022/12/08 07:04:28;;;;;;;10.20;5.60;;;;;;;-1.87;95.76;94865.59;4953629;28;20224;-80
2022/12/08 07:06:54;;;;;;;7.93;5.43;;;;;;;-1.75;95.71;94867.44;4962903;28;20196;-78
2022/12/08 07:09:19;;;;;;;11.10;6.97;;;;;;;-1.73;95.19;94869.88;4953626;29;20224;-79
2022/12/08 07:11:44;;;;;;;12.03;8.23;;;;;;;-1.73;94.84;94862.25;4933489;29;20200;-79
2022/12/08 07:14:10;;;;;;;9.20;5.30;;;;;;;-1.66;95.13;94865.25;4959902;28;20643;-79
2022/12/08 07:16:35;;;;;;;7.43;5.00;;;;;;;-1.65;94.55;94865.16;4947691;29;20196;-80
2022/12/08 07:19:01;;;;;;;9.10;5.00;;;;;;;-1.57;94.59;94862.97;4950458;29;20222;-80
2022/12/08 07:21:26;;;;;;;7.57;5.00;;;;;;;-1.51;94.15;94865.16;4955260;29;20200;-80
2022/12/08 07:23:51;;;;;;;8.73;5.00;;;;;;;-1.52;93.92;94860.16;4927923;29;20212;-80
2022/12/08 07:26:17;;;;;;;6.77;5.47;;;;;;;-1.39;93.38;94865.34;4945441;29;20216;-80
2022/12/08 07:28:42;;;;;;;9.67;5.67;;;;;;;-1.39;93.25;94863.59;4955074;28;20723;-80
2022/12/08 07:31:16;;;;;;;6.20;4.93;;;;;;;-1.25;92.26;94868.66;4969026;28;20211;-80
2022/12/08 07:33:42;;;;;;;9.80;4.83;;;;;;;-1.25;92.30;94868.66;4972160;28;20204;-79
2022/12/08 07:36:07;;;;;;;7.47;4.80;;;;;;;-1.07;91.34;94878.66;4971003;28;20749;-79
2022/12/08 07:38:32;;;;;;;7.90;4.70;;;;;;;-1.11;91.25;94883.13;4962897;28;20279;-78
2022/12/08 07:40:58;;;;;;;9.10;4.53;;;;;;;-1.02;91.27;94880.03;4964918;28;20747;-79
2022/12/08 07:43:23;;;;;;;6.83;4.67;;;;;;;-0.95;91.09;94881.28;4952155;28;20557;-80
2022/12/08 07:45:49;;;;;;;6.30;4.47;;;;;;;-0.81;90.35;94877.06;4978272;28;20267;-79
2022/12/08 07:48:14;;;;;;;8.13;4.67;;;;;;;-0.71;89.79;94873.81;4975199;28;20185;-80
2022/12/08 07:50:40;;;;;;;7.60;4.67;;;;;;;-0.83;90.35;94868.69;4961507;28;20184;-80
2022/12/08 07:53:05;;;;;;;7.00;4.60;;;;;;;-0.62;90.13;94869.88;4967590;28;20212;-79
2022/12/08 07:55:31;;;;;;;8.97;5.07;;;;;;;-0.51;89.92;94864.94;4963545;28;20549;-79
2022/12/08 07:57:56;;;;;;;7.37;4.53;;;;;;;-0.55;89.66;94862.66;4957360;28;20206;-80
2022/12/08 08:00:21;;;;;;;5.77;4.20;;;;;;;-0.46;88.98;94862.91;4962208;28;20200;-79
2022/12/08 08:02:47;;;;;;;6.63;4.50;;;;;;;-0.39;88.89;94861.59;4949493;28;20283;-79
2022/12/08 08:05:12;;;;;;;4.90;4.00;;;;;;;-0.28;88.50;94853.25;4971191;28;20239;-80
2022/12/08 08:07:38;;;;;;;7.50;4.53;;;;;;;-0.16;88.22;94854.22;4964824;28;20598;-80
2022/12/08 08:10:05;;;;;;;6.03;4.50;;;;;;;-0.06;87.83;94850.94;4972974;28;20191;-79
2022/12/08 08:12:30;;;;;;;6.33;4.07;;;;;;;-0.09;87.62;94852.88;4968449;28;20236;-79
2022/12/08 08:14:56;;;;;;;6.50;3.87;;;;;;;-0.02;87.25;94857.47;4961484;28;20712;-80
2022/12/08 08:17:21;;;;;;;4.57;3.90;;;;;;;0.20;87.68;94850.97;4968484;28;20196;-81
2022/12/08 08:19:46;;;;;;;8.90;4.03;;;;;;;0.31;86.25;94848.50;4950170;28;20213;-79
2022/12/08 08:22:12;;;;;;;13.10;4.50;;;;;;;0.32;85.68;94849.31;4958408;28;20611;-78
2022/12/08 08:24:37;;;;;;;7.50;3.93;;;;;;;0.63;85.06;94859.13;4947311;28;20800;-79
2022/12/08 08:27:02;;;;;;;6.17;4.17;;;;;;;0.74;84.59;94848.97;4978606;28;20247;-80
2022/12/08 08:29:28;;;;;;;9.03;4.87;;;;;;;0.82;84.36;94848.44;4972559;28;20185;-80
2022/12/08 08:31:53;;;;;;;4.23;3.50;;;;;;;0.87;83.87;94854.03;4980502;28;20192;-80
2022/12/08 08:34:19;;;;;;;7.53;3.77;;;;;;;1.03;82.93;94843.56;4962403;28;20568;-79
2022/12/08 08:36:44;;;;;;;4.87;3.57;;;;;;;1.04;82.91;94852.88;4951954;28;20240;-79
2022/12/08 08:39:09;;;;;;;4.87;3.50;;;;;;;1.18;82.48;94845.06;4962868;28;20603;-80
2022/12/08 08:41:35;;;;;;;5.30;3.20;;;;;;;1.11;81.84;94854.09;4961616;28;20193;-80
2022/12/08 08:44:00;;;;;;;4.13;3.20;;;;;;;1.14;82.31;94849.56;4966860;28;20627;-79
2022/12/08 08:46:25;;;;;;;3.60;3.03;;;;;;;1.22;82.42;94850.78;4960954;28;20185;-80
2022/12/08 08:48:51;;;;;;;5.23;3.50;;;;;;;1.49;82.35;94846.25;4958173;28;20203;-79
2022/12/08 08:51:16;;;;;;;4.93;3.43;;;;;;;1.20;81.25;94843.22;4963493;28;20200;-79
2022/12/08 08:53:41;;;;;;;4.97;3.43;;;;;;;1.34;80.63;94860.16;4969945;28;20216;-81
2022/12/08 08:56:09;;;;;;;4.60;3.20;;;;;;;1.42;80.20;94847.63;4966803;28;20215;-80
2022/12/08 08:58:35;;;;;;;4.87;3.63;;;;;;;1.54;80.22;94841.63;4960181;28;20623;-80
2022/12/08 09:01:00;;;;;;;6.57;4.57;;;;;;;1.81;79.85;94843.94;4957370;28;20181;-79
2022/12/08 09:03:25;;;;;;;4.37;3.47;;;;;;;1.91;79.45;94838.97;4973536;28;20887;-80
2022/12/08 09:05:50;;;;;;;4.07;3.30;;;;;;;2.07;79.60;94833.53;4942472;28;20185;-79
2022/12/08 09:08:16;;;;;;;5.17;3.20;;;;;;;2.45;77.67;94836.59;4966192;28;20184;-80
2022/12/08 09:10:41;;;;;;;4.03;3.33;;;;;;;2.09;77.96;94832.47;4990358;28;20184;-79
2022/12/08 09:13:06;;;;;;;4.67;3.63;;;;;;;2.31;78.95;94831.72;4965434;28;20264;-78
2022/12/08 09:15:32;;;;;;;5.00;3.30;;;;;;;2.41;78.53;94837.78;4967682;28;20204;-79
2022/12/08 09:17:57;;;;;;;4.73;3.60;;;;;;;2.69;77.29;94830.56;4966937;28;20184;-80
2022/12/08 09:20:22;;;;;;;5.90;3.40;;;;;;;2.59;78.30;94829.63;4966837;28;20215;-79
2022/12/08 09:22:48;;;;;;;4.37;3.57;;;;;;;2.79;77.02;94827.16;4978362;28;20200;-79
2022/12/08 09:25:13;;;;;;;3.97;3.13;;;;;;;2.62;76.09;94827.63;4954932;28;20220;-79
2022/12/08 09:27:38;;;;;;;6.00;4.30;;;;;;;2.62;76.08;94830.19;4969889;28;20231;-79
2022/12/08 09:30:04;;;;;;;7.37;4.70;;;;;;;2.62;77.09;94831.94;4976967;28;20329;-80
2022/12/08 09:32:29;;;;;;;4.13;3.43;;;;;;;2.58;76.34;94828.00;4973642;28;20700;-80
2022/12/08 09:34:55;;;;;;;7.07;4.70;;;;;;;2.57;77.21;94832.31;4982128;28;20584;-79
2022/12/08 09:37:20;;;;;;;6.63;4.57;;;;;;;2.54;77.44;94832.53;4969346;28;20257;-79
2022/12/08 09:39:45;;;;;;;7.23;4.73;;;;;;;2.55;77.55;94832.41;4964066;28;20208;-79
2022/12/08 09:42:11;;;;;;;6.93;5.10;;;;;;;2.46;78.30;94827.97;4985421;28;20181;-79
2022/12/08 09:44:46;;;;;;;9.30;5.53;;;;;;;2.47;79.29;94829.63;4986250;28;20627;-79
2022/12/08 09:47:25;;;;;;;6.00;3.67;;;;;;;2.38;77.42;94832.84;4957392;28;20200;-80
2022/12/08 09:50:00;;;;;;;4.13;3.13;;;;;;;2.28;76.65;94831.91;4972625;28;20285;-79
2022/12/08 09:52:30;;;;;;;9.33;5.93;;;;;;;2.25;76.82;94825.28;4947448;28;20220;-79
2022/12/08 09:54:58;;;;;;;7.87;5.90;;;;;;;2.20;76.25;94834.25;4970995;28;20223;-79
2022/12/08 09:57:23;;;;;;;7.90;4.60;;;;;;;2.27;76.48;94825.97;4967465;28;20192;-79
2022/12/08 09:59:54;;;;;;;5.87;2.80;;;;;;;2.35;75.10;94819.47;4971893;28;20258;-79
2022/12/08 10:02:22;;;;;;;5.23;3.57;;;;;;;2.51;75.23;94819.94;4956135;28;20189;-79
2022/12/08 10:04:48;;;;;;;3.53;2.80;;;;;;;2.54;74.88;94817.97;4974842;28;20211;-79
2022/12/08 10:07:41;;;;;;;4.10;2.90;;;;;;;2.51;75.33;94809.69;4982283;28;20259;-79
2022/12/08 10:10:28;;;;;;;4.93;2.80;;;;;;;2.51;74.51;94809.69;4995226;28;20192;-81
2022/12/08 10:13:00;;;;;;;3.57;3.03;;;;;;;2.50;74.45;94803.75;4978400;28;20226;-79
2022/12/08 10:15:35;;;;;;;3.80;3.23;;;;;;;2.72;74.26;94812.34;4987573;28;20212;-80
2022/12/08 10:18:02;;;;;;;3.23;2.90;;;;;;;2.76;73.13;94809.44;4984923;28;20187;-80
2022/12/08 10:20:36;;;;;;;5.03;3.10;;;;;;;2.78;73.05;94806.78;4972308;28;20188;-81
2022/12/08 10:23:13;;;;;;;4.20;3.30;;;;;;;2.70;72.10;94806.53;4981543;28;20184;-79
2022/12/08 10:25:44;;;;;;;3.47;3.07;;;;;;;2.79;72.06;94808.41;4988978;28;20299;-78
2022/12/08 10:28:10;;;;;;;4.80;3.00;;;;;;;2.50;73.07;94795.25;4977054;28;20217;-80
2022/12/08 10:30:35;;;;;;;4.30;3.17;;;;;;;2.81;72.95;94798.81;4956226;28;20193;-80
2022/12/08 10:33:00;;;;;;;8.93;6.17;;;;;;;2.83;73.42;94797.78;4973882;28;20204;-79
2022/12/08 10:35:41;;;;;;;6.53;4.90;;;;;;;2.90;73.74;94799.88;4983306;28;20250;-80
2022/12/08 10:38:15;;;;;;;6.20;4.47;;;;;;;2.74;76.66;94797.66;4973145;28;20595;-79
2022/12/08 10:40:42;;;;;;;7.63;5.63;;;;;;;2.79;76.77;94793.81;4956147;28;20196;-80
2022/12/08 10:43:13;;;;;;;6.33;4.50;;;;;;;2.78;75.80;94794.75;4953439;28;20206;-79
2022/12/08 10:45:42;;;;;;;6.73;4.80;;;;;;;2.66;77.27;94797.47;4975001;28;20228;-79
2022/12/08 10:48:24;;;;;;;6.60;4.23;;;;;;;2.70;77.47;94793.72;4957539;28;20199;-81
2022/12/08 10:50:49;;;;;;;5.33;4.40;;;;;;;2.66;77.75;94789.78;4964102;28;20187;-80
2022/12/08 10:53:31;;;;;;;6.83;4.73;;;;;;;2.63;77.09;94783.13;4982993;28;20742;-81
2022/12/08 10:56:02;;;;;;;5.87;5.27;;;;;;;2.59;78.71;94783.47;4990371;28;20192;-81
2022/12/08 10:58:35;;;;;;;6.67;5.23;;;;;;;2.62;78.55;94785.81;4977378;28;20186;-80
2022/12/08 11:01:03;;;;;;;6.17;4.90;;;;;;;2.61;78.83;94781.63;4994689;28;20477;-81
2022/12/08 11:03:30;;;;;;;6.73;3.97;;;;;;;2.13;77.63;94772.44;4978724;28;20181;-81
2022/12/08 11:05:57;;;;;;;4.50;3.20;;;;;;;1.92;78.49;94774.81;4958182;28;20275;-81
2022/12/08 11:08:23;;;;;;;4.33;3.73;;;;;;;1.98;78.54;94764.13;4956351;28;20740;-81
2022/12/08 11:10:48;;;;;;;5.43;3.83;;;;;;;2.28;78.57;94758.44;4961655;28;20258;-80
2022/12/08 11:13:25;;;;;;;3.80;3.30;;;;;;;2.15;76.08;94756.94;4972039;28;20311;-81
2022/12/08 11:15:51;;;;;;;3.73;3.00;;;;;;;2.42;76.38;94752.28;4970067;28;20209;-81
2022/12/08 11:18:27;;;;;;;5.30;3.17;;;;;;;2.41;76.17;94752.41;4972097;28;20184;-81
2022/12/08 11:21:01;;;;;;;4.83;2.70;;;;;;;2.05;76.59;94758.56;4983324;28;20184;-81
2022/12/08 11:23:28;;;;;;;3.20;2.67;;;;;;;2.31;76.66;94752.28;4982247;28;20617;-81
2022/12/08 11:25:57;;;;;;;3.90;3.23;;;;;;;2.34;76.47;94751.22;4980180;28;20295;-81
2022/12/08 11:28:23;;;;;;;3.20;2.90;;;;;;;2.57;75.94;94745.16;4965176;28;20228;-81
2022/12/08 11:30:53;;;;;;;4.17;2.87;;;;;;;2.76;75.34;94747.09;4966361;28;20223;-82
2022/12/08 11:33:26;;;;;;;4.40;3.00;;;;;;;2.69;74.72;94739.06;4969298;28;20204;-81
2022/12/08 11:36:04;;;;;;;5.17;3.20;;;;;;;2.83;74.88;94738.81;4952069;28;21798;-81
2022/12/08 11:38:31;;;;;;;5.93;4.10;;;;;;;2.91;74.15;94734.81;4965757;28;20232;-81
2022/12/08 11:41:02;;;;;;;5.63;3.37;;;;;;;2.51;74.60;94733.63;4960536;28;20184;-82
2022/12/08 11:43:33;;;;;;;3.40;2.63;;;;;;;2.49;73.07;94743.19;4970312;28;20715;-81